Terminal Aerodrome Forecast
Issued by NWS North Platte, NE

Home | Current Version | Previous Version | Text Only | Print | Product List | Glossary On
Versions: 1 2 3 4 5 6 7 8 9 10 11 12 13 14 15 16 17 18
000
FTUS43 KLBF 221138
TAFVTN
TAF
KVTN 221138Z 2212/2312 33005KT P6SM SCT250
     FM221700 05007KT P6SM BKN200
     FM230200 13006KT P6SM SCT200
     FM230300 23005KT P6SM FEW200=

USA.gov is the U.S. government's official web portal to all federal, state and local government web resources and services.